Time;durP1;ratioP1;P1;durP2;ratioP2;P2;SDS_P1;SDS_P2;PMS_P1;PMS_P2;Temp;Humidity;BMP_temperature;BMP_pressure;BME280_temperature;BME280_humidity;BME280_pressure;Samples;Min_cycle;Max_cycle;Signal;HPM_P1;HPM_P2
2024/01/30 00:01:48;;;;;;;7.90;6.23;;;;;;;5.44;100.00;152758.84;5045424;28;20925;-79
2024/01/30 00:04:16;;;;;;;6.60;6.00;;;;;;;5.41;100.00;152751.09;5030498;28;20896;-79
2024/01/30 00:06:43;;;;;;;8.37;6.20;;;;;;;5.39;100.00;152745.94;5045093;28;20932;-79
2024/01/30 00:09:10;;;;;;;7.40;6.50;;;;;;;5.38;99.71;152743.34;5026856;28;20806;-79
2024/01/30 00:11:36;;;;;;;8.23;6.83;;;;;;;5.36;99.29;152738.22;5046290;28;20475;-79
2024/01/30 00:14:03;;;;;;;8.30;6.80;;;;;;;5.35;99.70;152736.91;5043473;28;20467;-79
2024/01/30 00:16:30;;;;;;;6.40;5.37;;;;;;;5.33;99.96;152730.47;5008968;28;20470;-79
2024/01/30 00:18:56;;;;;;;7.77;6.53;;;;;;;5.28;99.36;152717.59;5043870;28;20455;-79
2024/01/30 00:21:24;;;;;;;6.80;6.10;;;;;;;5.26;99.99;152712.44;5047485;28;20470;-78
2024/01/30 00:23:51;;;;;;;8.47;6.60;;;;;;;5.21;100.00;152700.84;5046439;28;20453;-79
2024/01/30 00:26:17;;;;;;;7.67;5.70;;;;;;;5.23;99.69;152704.69;5029602;28;20462;-79
2024/01/30 00:28:44;;;;;;;6.20;5.60;;;;;;;5.23;99.01;152704.69;5028054;28;20448;-79
2024/01/30 00:31:12;;;;;;;7.53;6.03;;;;;;;5.23;98.83;152704.69;5049024;28;20506;-78
2024/01/30 00:33:38;;;;;;;6.73;5.53;;;;;;;5.25;98.49;152711.13;5025631;28;20869;-78
2024/01/30 00:36:06;;;;;;;7.37;6.13;;;;;;;5.24;98.52;152707.28;5029590;28;20497;-79
2024/01/30 00:38:34;;;;;;;6.80;6.07;;;;;;;5.26;98.62;152712.44;5029162;28;20439;-79
2024/01/30 00:41:01;;;;;;;6.70;5.57;;;;;;;5.23;97.93;152706.00;5044483;28;20455;-79
2024/01/30 00:43:28;;;;;;;7.50;6.07;;;;;;;5.23;98.37;152704.69;5038430;28;21003;-80
2024/01/30 00:45:55;;;;;;;8.37;6.50;;;;;;;5.23;97.93;152704.69;5047878;28;20455;-79
2024/01/30 00:48:21;;;;;;;8.63;5.87;;;;;;;5.23;97.85;152704.69;5013077;28;20507;-79
2024/01/30 00:50:48;;;;;;;7.50;5.93;;;;;;;5.27;97.77;152715.03;5028909;28;20989;-79
2024/01/30 00:53:14;;;;;;;7.17;6.47;;;;;;;5.20;97.73;152698.25;5046550;28;20458;-80
2024/01/30 00:55:42;;;;;;;8.03;6.27;;;;;;;5.19;97.71;152694.41;5047141;28;20512;-79
2024/01/30 00:58:09;;;;;;;6.90;5.47;;;;;;;5.20;97.57;152696.94;5045492;28;20487;-79
2024/01/30 01:00:35;;;;;;;6.20;5.57;;;;;;;5.17;97.42;152689.22;5045931;28;20509;-79
2024/01/30 01:03:02;;;;;;;8.13;6.10;;;;;;;5.16;97.01;152686.66;5028628;28;21312;-80
2024/01/30 01:05:29;;;;;;;7.83;6.03;;;;;;;5.12;96.64;152676.31;5046377;28;20451;-79
2024/01/30 01:07:55;;;;;;;6.37;5.77;;;;;;;5.12;96.61;152676.31;5043529;28;20909;-79
2024/01/30 01:10:22;;;;;;;6.63;5.93;;;;;;;5.11;96.90;152675.03;5044615;28;20589;-79
2024/01/30 01:12:50;;;;;;;6.83;6.13;;;;;;;5.12;97.33;152676.31;5013722;28;20913;-79
2024/01/30 01:15:17;;;;;;;8.33;6.37;;;;;;;5.10;97.71;152672.47;5028963;28;20492;-80
2024/01/30 01:17:43;;;;;;;6.80;6.10;;;;;;;5.11;97.72;152673.78;5038818;28;20517;-79
2024/01/30 01:20:10;;;;;;;8.77;6.60;;;;;;;5.09;97.40;152669.88;5045591;28;20458;-79
2024/01/30 01:22:38;;;;;;;7.90;6.63;;;;;;;5.08;98.72;152666.03;5045303;28;20431;-79
2024/01/30 01:25:06;;;;;;;11.40;7.50;;;;;;;5.05;98.71;152659.59;5044520;28;20451;-79
2024/01/30 01:27:34;;;;;;;8.73;7.07;;;;;;;5.05;99.35;152658.31;5047388;28;20443;-79
2024/01/30 01:30:04;;;;;;;8.30;7.37;;;;;;;5.00;99.49;152645.41;5045528;28;21012;-79
2024/01/30 01:32:31;;;;;;;9.23;7.87;;;;;;;4.98;99.44;152641.53;5034310;28;20473;-79
2024/01/30 01:34:57;;;;;;;10.20;8.37;;;;;;;4.99;99.66;152644.13;5047575;28;20438;-79
2024/01/30 01:37:26;;;;;;;9.43;7.53;;;;;;;4.99;99.74;152642.81;5047171;28;21013;-79
2024/01/30 01:39:52;;;;;;;9.10;7.67;;;;;;;4.95;99.81;152632.53;5040920;28;20534;-78
2024/01/30 01:42:19;;;;;;;8.70;7.80;;;;;;;4.87;99.93;152613.22;5036511;28;21010;-79
2024/01/30 01:44:45;;;;;;;10.63;8.03;;;;;;;4.83;99.60;152604.16;5052860;28;20438;-79
2024/01/30 01:47:13;;;;;;;11.67;9.77;;;;;;;4.86;99.84;152611.91;5049369;28;20447;-79
2024/01/30 01:49:40;;;;;;;11.80;8.77;;;;;;;4.86;99.68;152611.91;5027586;28;20443;-79
2024/01/30 01:52:07;;;;;;;9.93;8.33;;;;;;;4.85;99.74;152609.31;5023983;28;20609;-79
2024/01/30 01:54:34;;;;;;;8.00;7.20;;;;;;;4.79;99.43;152592.59;5043974;28;20489;-79
2024/01/30 01:57:00;;;;;;;9.67;7.70;;;;;;;4.77;99.58;152588.69;5025734;28;20451;-79
2024/01/30 01:59:28;;;;;;;12.07;8.50;;;;;;;4.78;99.94;152590.00;5028257;28;20455;-79
2024/01/30 02:01:56;;;;;;;8.70;7.33;;;;;;;4.77;99.78;152587.41;5055005;28;20444;-79
2024/01/30 02:04:23;;;;;;;8.60;7.20;;;;;;;4.74;100.00;152580.97;5015924;28;20556;-79
2024/01/30 02:06:50;;;;;;;12.00;7.83;;;;;;;4.73;100.00;152577.13;5041774;28;20482;-79
2024/01/30 02:09:17;;;;;;;8.33;7.43;;;;;;;4.68;100.00;152565.53;5043826;28;20462;-79
2024/01/30 02:11:43;;;;;;;10.43;8.23;;;;;;;4.61;99.99;152547.47;5013803;28;20481;-79
2024/01/30 02:14:10;;;;;;;9.23;8.07;;;;;;;4.53;99.52;152526.84;5033096;28;20480;-79
2024/01/30 02:16:37;;;;;;;8.17;7.13;;;;;;;4.57;99.71;152537.19;5031620;28;20459;-79
2024/01/30 02:19:03;;;;;;;8.53;7.13;;;;;;;4.56;98.88;152533.28;5038549;28;20460;-79
2024/01/30 02:21:31;;;;;;;10.90;8.73;;;;;;;4.56;98.73;152534.59;5032067;28;20455;-79
2024/01/30 02:23:59;;;;;;;11.90;8.50;;;;;;;4.52;99.36;152524.28;5046830;28;20780;-79
2024/01/30 02:26:25;;;;;;;10.10;8.00;;;;;;;4.44;99.02;152503.69;5029541;28;20497;-79
2024/01/30 02:28:52;;;;;;;10.60;7.67;;;;;;;4.40;99.37;152493.34;5049300;28;20458;-79
2024/01/30 02:31:18;;;;;;;10.23;9.13;;;;;;;4.36;99.28;152483.06;5053613;28;20447;-78
2024/01/30 02:33:45;;;;;;;10.00;9.00;;;;;;;4.35;99.61;152480.47;5031244;28;20759;-78
2024/01/30 02:36:11;;;;;;;9.40;8.37;;;;;;;4.30;100.00;152467.59;5046288;28;20540;-79
2024/01/30 02:38:39;;;;;;;8.43;7.27;;;;;;;4.23;99.54;152449.59;5035730;28;20461;-78
2024/01/30 02:41:06;;;;;;;9.97;8.27;;;;;;;4.16;99.32;152432.81;5048463;28;20459;-79
2024/01/30 02:43:32;;;;;;;9.10;7.73;;;;;;;4.15;99.86;152430.28;5032050;28;20435;-79
2024/01/30 02:46:00;;;;;;;9.80;8.37;;;;;;;4.14;100.00;152427.69;5051541;28;20447;-79
2024/01/30 02:48:26;;;;;;;10.20;8.50;;;;;;;4.11;100.00;152418.66;5032913;28;20435;-79
2024/01/30 02:50:53;;;;;;;8.80;7.70;;;;;;;4.08;100.00;152412.22;5049342;28;20905;-79
2024/01/30 02:53:19;;;;;;;8.60;7.47;;;;;;;4.04;100.00;152400.63;5028143;28;21061;-79
2024/01/30 02:55:47;;;;;;;8.93;7.07;;;;;;;4.02;100.00;152395.50;5018591;28;20458;-78
2024/01/30 02:58:14;;;;;;;11.00;9.10;;;;;;;3.99;100.00;152389.06;5028424;28;20432;-79
2024/01/30 03:00:40;;;;;;;11.00;8.80;;;;;;;3.98;100.00;152386.47;5035775;28;20501;-79
2024/01/30 03:03:07;;;;;;;9.63;8.63;;;;;;;3.98;100.00;152385.16;5051633;28;21010;-79
2024/01/30 03:05:33;;;;;;;11.60;9.03;;;;;;;3.95;100.00;152377.44;5048657;28;20509;-79
2024/01/30 03:08:00;;;;;;;10.83;7.97;;;;;;;3.96;100.00;152380.03;5030493;28;20516;-79
2024/01/30 03:10:26;;;;;;;9.60;7.90;;;;;;;3.91;100.00;152367.16;5048545;28;20455;-79
2024/01/30 03:12:54;;;;;;;9.03;7.50;;;;;;;3.91;100.00;152367.16;5049173;28;20560;-79
2024/01/30 03:15:20;;;;;;;11.27;8.17;;;;;;;3.86;100.00;152355.56;5042898;28;20529;-79
2024/01/30 03:17:47;;;;;;;10.87;7.33;;;;;;;3.85;100.00;152353.00;5035544;28;20459;-79
2024/01/30 03:20:14;;;;;;;10.93;8.10;;;;;;;3.85;100.00;152351.69;5049558;28;20485;-79
2024/01/30 03:22:40;;;;;;;9.03;7.80;;;;;;;3.87;100.00;152358.13;5049131;28;20481;-79
2024/01/30 03:25:08;;;;;;;11.53;9.00;;;;;;;3.89;100.00;152362.00;5050120;28;20443;-79
2024/01/30 03:27:34;;;;;;;10.27;8.37;;;;;;;3.89;100.00;152362.00;5039840;28;20522;-79
2024/01/30 03:30:02;;;;;;;9.10;8.13;;;;;;;3.87;100.00;152358.13;5031145;28;20442;-79
2024/01/30 03:32:29;;;;;;;9.13;7.53;;;;;;;3.87;100.00;152358.13;5029950;28;21142;-79
2024/01/30 03:34:55;;;;;;;10.80;8.10;;;;;;;3.87;100.00;152356.81;5027601;28;20969;-79
2024/01/30 03:37:22;;;;;;;10.20;8.43;;;;;;;3.86;100.00;152355.56;5037771;28;20458;-79
2024/01/30 03:39:48;;;;;;;9.27;8.17;;;;;;;3.83;100.00;152347.84;5029177;28;20969;-79
2024/01/30 03:42:15;;;;;;;11.27;9.00;;;;;;;3.78;100.00;152334.97;5033206;28;20828;-78
2024/01/30 03:44:41;;;;;;;11.43;8.10;;;;;;;3.75;100.00;152325.94;5028961;28;20512;-79
2024/01/30 03:47:09;;;;;;;10.20;8.67;;;;;;;3.76;100.00;152329.78;5048849;28;20454;-79
2024/01/30 03:49:36;;;;;;;13.27;9.37;;;;;;;3.77;100.00;152331.09;5046172;28;20980;-78
2024/01/30 03:52:02;;;;;;;10.17;8.40;;;;;;;3.80;100.00;152338.81;5030295;28;20471;-79
2024/01/30 03:54:29;;;;;;;11.80;8.27;;;;;;;3.74;100.00;152323.34;5051819;28;20455;-78
2024/01/30 03:56:55;;;;;;;11.80;8.87;;;;;;;3.68;100.00;152310.50;5052965;28;20534;-79
2024/01/30 03:59:23;;;;;;;9.30;8.27;;;;;;;3.67;100.00;152306.66;5048364;28;20505;-79
2024/01/30 04:01:51;;;;;;;10.50;8.43;;;;;;;3.66;100.00;152305.34;5028358;28;20442;-78
2024/01/30 04:04:18;;;;;;;9.43;8.43;;;;;;;3.63;100.00;152296.31;5042315;28;20423;-79
2024/01/30 04:06:45;;;;;;;10.07;8.50;;;;;;;3.57;100.00;152282.16;5030006;28;20435;-78
2024/01/30 04:09:13;;;;;;;11.03;9.30;;;;;;;3.55;100.00;152277.03;5042910;28;20534;-78
2024/01/30 04:11:39;;;;;;;10.00;8.13;;;;;;;3.57;100.00;152280.91;5047460;28;20459;-78
2024/01/30 04:14:06;;;;;;;13.03;7.93;;;;;;;3.55;100.00;152277.03;5033410;28;21058;-78
2024/01/30 04:16:32;;;;;;;10.00;8.17;;;;;;;3.54;100.00;152274.47;5029508;28;20455;-78
2024/01/30 04:18:59;;;;;;;11.20;9.00;;;;;;;3.57;100.00;152282.16;5027701;28;20856;-78
2024/01/30 04:21:26;;;;;;;9.30;7.87;;;;;;;3.57;100.00;152280.91;5027260;28;20505;-79
2024/01/30 04:23:54;;;;;;;11.20;9.13;;;;;;;3.56;100.00;152279.63;5048611;28;20814;-78
2024/01/30 04:26:20;;;;;;;10.20;8.60;;;;;;;3.54;100.00;152274.47;5027864;28;20522;-79
2024/01/30 04:28:47;;;;;;;11.17;9.27;;;;;;;3.55;100.00;152277.03;5032303;28;20503;-78
2024/01/30 04:31:13;;;;;;;12.53;9.63;;;;;;;3.54;100.00;152274.47;5046081;28;20494;-78
2024/01/30 04:33:40;;;;;;;9.97;8.80;;;;;;;3.53;100.00;152270.59;5033132;28;20473;-79
2024/01/30 04:36:09;;;;;;;14.80;9.33;;;;;;;3.52;100.00;152269.28;5044656;28;20558;-78
2024/01/30 04:38:37;;;;;;;11.10;9.03;;;;;;;3.50;100.00;152262.84;5047543;28;20431;-78
2024/01/30 04:41:05;;;;;;;10.20;7.97;;;;;;;3.44;100.00;152248.69;5046379;28;20451;-78
2024/01/30 04:43:31;;;;;;;11.47;8.90;;;;;;;3.41;100.00;152241.00;5029948;28;20542;-78
2024/01/30 04:45:58;;;;;;;9.23;8.33;;;;;;;3.38;100.00;152232.00;5013622;28;20459;-78
2024/01/30 04:48:24;;;;;;;10.50;8.20;;;;;;;3.39;100.00;152235.81;5046635;28;20450;-79
2024/01/30 04:50:51;;;;;;;9.80;8.10;;;;;;;3.39;100.00;152234.59;5047163;28;20450;-80
2024/01/30 04:53:17;;;;;;;13.13;8.40;;;;;;;3.38;100.00;152233.28;5047750;28;20505;-80
2024/01/30 04:55:45;;;;;;;10.53;8.17;;;;;;;3.36;100.00;152228.09;5029236;28;20494;-80
2024/01/30 04:58:11;;;;;;;13.00;9.60;;;;;;;3.33;100.00;152220.41;5047018;28;21149;-79
2024/01/30 05:00:38;;;;;;;12.30;9.70;;;;;;;3.29;100.00;152210.09;5043852;28;20513;-80
2024/01/30 05:03:05;;;;;;;13.47;9.23;;;;;;;3.28;100.00;152206.25;5028917;28;20459;-80
2024/01/30 05:05:31;;;;;;;14.13;10.40;;;;;;;3.23;100.00;152194.63;5048283;28;20790;-79
2024/01/30 05:07:58;;;;;;;14.93;10.90;;;;;;;3.25;100.00;152199.81;5023879;28;20504;-79
2024/01/30 05:10:24;;;;;;;12.50;9.70;;;;;;;3.24;100.00;152197.22;5027086;28;21049;-79
2024/01/30 05:12:52;;;;;;;12.00;10.27;;;;;;;3.25;100.00;152199.81;5046513;28;20482;-79
2024/01/30 05:15:20;;;;;;;11.33;10.23;;;;;;;3.27;100.00;152204.97;5045056;28;20533;-80
2024/01/30 05:17:46;;;;;;;10.00;9.00;;;;;;;3.27;100.00;152203.66;5031683;28;20496;-80
2024/01/30 05:20:13;;;;;;;10.93;9.27;;;;;;;3.26;100.00;152201.06;5028457;28;20447;-79
2024/01/30 05:22:44;;;;;;;11.13;9.67;;;;;;;3.26;100.00;152202.38;5045434;28;20458;-80
2024/01/30 05:25:11;;;;;;;12.77;10.47;;;;;;;3.23;100.00;152194.63;5045300;28;20447;-79
2024/01/30 05:27:37;;;;;;;12.60;10.00;;;;;;;3.16;100.00;152176.66;5048776;28;20442;-79
2024/01/30 05:30:07;;;;;;;13.17;10.37;;;;;;;3.16;100.00;152175.34;5008808;28;20469;-79
2024/01/30 05:32:33;;;;;;;13.03;10.73;;;;;;;3.15;100.00;152174.03;5011992;28;21004;-80
2024/01/30 05:35:05;;;;;;;14.10;10.23;;;;;;;3.14;100.00;152170.22;5046670;28;20458;-80
2024/01/30 05:37:31;;;;;;;12.50;10.23;;;;;;;3.06;100.00;152150.91;5046692;28;20469;-79
2024/01/30 05:39:58;;;;;;;12.57;9.90;;;;;;;3.06;100.00;152150.91;5046837;28;20435;-79
2024/01/30 05:42:24;;;;;;;10.90;9.53;;;;;;;3.03;100.00;152143.19;5026772;28;20562;-79
2024/01/30 05:44:51;;;;;;;11.60;9.77;;;;;;;3.06;100.00;152150.91;5018246;28;20820;-79
2024/01/30 05:47:19;;;;;;;13.70;10.87;;;;;;;3.05;100.00;152148.31;5046969;28;20447;-79
2024/01/30 05:49:45;;;;;;;13.37;10.60;;;;;;;3.06;100.00;152152.22;5047698;28;20446;-79
2024/01/30 05:52:12;;;;;;;11.83;10.00;;;;;;;3.05;100.00;152149.63;5051065;28;20550;-79
2024/01/30 05:54:38;;;;;;;12.70;10.03;;;;;;;3.08;100.00;152156.06;5048566;28;20567;-79
2024/01/30 05:57:06;;;;;;;13.03;10.30;;;;;;;3.11;100.00;152162.47;5032345;28;20462;-79
2024/01/30 05:59:32;;;;;;;14.57;11.30;;;;;;;3.12;100.00;152166.38;5050976;28;20443;-79
2024/01/30 06:01:59;;;;;;;12.63;11.30;;;;;;;3.09;100.00;152158.66;5046700;28;20455;-80
2024/01/30 06:04:27;;;;;;;15.50;11.90;;;;;;;3.08;100.00;152156.06;5031832;28;20454;-79
2024/01/30 06:06:53;;;;;;;15.00;12.87;;;;;;;3.07;100.00;152154.75;5028434;28;21101;-79
2024/01/30 06:09:20;;;;;;;12.80;10.73;;;;;;;3.07;100.00;152153.50;5039684;28;20477;-80
2024/01/30 06:11:46;;;;;;;13.10;10.80;;;;;;;3.09;100.00;152158.66;5037710;28;20472;-79
2024/01/30 06:14:13;;;;;;;14.03;10.70;;;;;;;3.07;100.00;152154.75;5010673;28;21320;-79
2024/01/30 06:16:39;;;;;;;11.60;10.00;;;;;;;3.06;100.00;152150.91;5028136;28;20460;-79
2024/01/30 06:19:06;;;;;;;13.50;10.53;;;;;;;3.06;100.00;152150.91;5029436;28;20454;-79
2024/01/30 06:21:36;;;;;;;10.93;9.73;;;;;;;3.03;100.00;152144.47;5034072;28;20589;-79
2024/01/30 06:24:03;;;;;;;13.20;10.10;;;;;;;3.03;100.00;152143.19;5040903;28;20584;-79
2024/01/30 06:26:29;;;;;;;16.70;10.57;;;;;;;3.03;100.00;152143.19;5023056;28;20462;-79
2024/01/30 06:28:56;;;;;;;11.23;9.50;;;;;;;3.05;100.00;152148.31;5041661;28;20451;-76
2024/01/30 06:31:22;;;;;;;12.57;10.13;;;;;;;3.05;100.00;152148.31;5041415;28;20452;-79
2024/01/30 06:33:52;;;;;;;15.17;11.53;;;;;;;3.08;100.00;152156.06;5038272;28;20478;-79
2024/01/30 06:36:18;;;;;;;13.30;9.90;;;;;;;3.08;100.00;152156.06;5039102;28;20470;-79
2024/01/30 06:38:46;;;;;;;16.73;11.30;;;;;;;3.07;100.00;152153.50;5039752;28;20799;-79
2024/01/30 06:41:13;;;;;;;13.80;10.93;;;;;;;3.07;100.00;152153.50;5042167;28;20486;-78
2024/01/30 06:43:40;;;;;;;13.10;11.20;;;;;;;3.08;100.00;152156.06;5020143;28;21423;-79
2024/01/30 06:46:06;;;;;;;12.03;10.53;;;;;;;3.08;100.00;152156.06;5040833;28;21056;-79
2024/01/30 06:48:33;;;;;;;11.97;10.00;;;;;;;3.06;100.00;152150.91;5038311;28;20548;-79
2024/01/30 06:50:59;;;;;;;12.47;10.80;;;;;;;3.05;100.00;152148.31;5021647;28;20501;-79
2024/01/30 06:53:26;;;;;;;13.83;10.80;;;;;;;3.05;100.00;152148.31;5039925;28;20503;-79
2024/01/30 06:55:57;;;;;;;12.10;10.03;;;;;;;3.04;100.00;152145.78;5042737;28;20469;-79
2024/01/30 06:58:23;;;;;;;12.57;9.77;;;;;;;3.07;100.00;152153.50;5043056;28;20457;-79
2024/01/30 07:00:50;;;;;;;10.53;9.43;;;;;;;3.05;100.00;152149.63;5029021;28;20455;-79
2024/01/30 07:03:16;;;;;;;13.53;9.73;;;;;;;3.06;100.00;152150.91;5023455;28;20455;-79
2024/01/30 07:05:43;;;;;;;11.80;9.80;;;;;;;3.05;100.00;152148.31;5025068;28;20994;-79
2024/01/30 07:08:10;;;;;;;12.23;9.50;;;;;;;3.09;100.00;152158.66;5040129;28;20549;-79
2024/01/30 07:10:36;;;;;;;11.70;9.23;;;;;;;3.13;100.00;152168.91;5038929;28;20996;-79
2024/01/30 07:13:05;;;;;;;13.83;10.90;;;;;;;3.16;100.00;152176.66;5039616;28;20455;-79
2024/01/30 07:15:32;;;;;;;12.93;10.03;;;;;;;3.19;100.00;152184.38;5027624;28;20804;-79
2024/01/30 07:17:58;;;;;;;10.10;9.00;;;;;;;3.21;100.00;152189.50;5037816;28;21017;-79
2024/01/30 07:20:25;;;;;;;10.30;9.17;;;;;;;3.28;100.00;152206.25;5022443;28;20466;-79
2024/01/30 07:22:52;;;;;;;10.57;9.47;;;;;;;3.36;100.00;152228.09;5022008;28;20554;-79
2024/01/30 07:25:18;;;;;;;11.33;9.93;;;;;;;3.41;100.00;152239.72;5040288;28;20505;-80
2024/01/30 07:27:45;;;;;;;14.83;10.40;;;;;;;3.49;100.00;152261.59;5041817;28;21010;-79
2024/01/30 07:30:13;;;;;;;10.93;9.20;;;;;;;3.60;100.00;152288.66;5041927;28;20525;-80
2024/01/30 07:32:39;;;;;;;13.43;9.90;;;;;;;3.88;100.00;152359.44;5040776;28;20550;-79
2024/01/30 07:35:06;;;;;;;11.83;10.50;;;;;;;4.30;100.00;152467.59;5022088;28;20537;-80
2024/01/30 07:37:33;;;;;;;12.07;9.90;;;;;;;4.64;100.00;152555.19;5037319;28;20475;-79
2024/01/30 07:39:59;;;;;;;13.73;10.63;;;;;;;4.91;100.00;152624.78;5046089;28;20451;-80
2024/01/30 07:42:26;;;;;;;14.37;11.40;;;;;;;5.06;100.00;152660.84;5026190;28;20535;-81
2024/01/30 07:44:52;;;;;;;13.67;10.80;;;;;;;5.04;98.53;152655.69;5025407;28;20514;-80
2024/01/30 07:47:21;;;;;;;11.77;9.60;;;;;;;4.94;97.93;152631.22;5037784;28;20458;-78
2024/01/30 07:49:47;;;;;;;11.97;9.80;;;;;;;4.92;97.95;152626.09;5022570;28;20447;-79
2024/01/30 07:52:14;;;;;;;13.70;9.93;;;;;;;4.98;97.37;152641.53;5037416;28;20452;-80
2024/01/30 07:54:41;;;;;;;13.57;9.23;;;;;;;4.91;97.36;152623.50;5039701;28;20486;-79
2024/01/30 07:57:08;;;;;;;11.47;10.27;;;;;;;4.77;96.92;152588.69;5032943;28;20462;-79
2024/01/30 07:59:34;;;;;;;10.80;9.70;;;;;;;4.66;97.79;152560.34;5037321;28;20458;-80
2024/01/30 08:02:01;;;;;;;14.07;9.50;;;;;;;4.52;97.76;152523.00;5019423;28;20903;-79
2024/01/30 08:04:28;;;;;;;12.60;9.20;;;;;;;4.39;97.92;152490.81;5021371;28;20447;-78
2024/01/30 08:06:56;;;;;;;12.60;9.13;;;;;;;4.36;98.33;152481.78;5022733;28;20540;-79
2024/01/30 08:11:11;;;;;;;13.32;10.77;;;;;;;4.35;99.70;152479.19;5073155;27;20439;-83
2024/01/30 08:13:38;;;;;;;11.57;10.27;;;;;;;4.36;100.00;152483.06;5058617;28;20286;-80
2024/01/30 08:16:05;;;;;;;13.13;10.00;;;;;;;4.38;100.00;152488.22;5055751;28;20516;-79
2024/01/30 08:18:32;;;;;;;10.40;8.93;;;;;;;4.42;100.00;152498.50;5043536;28;20508;-80
2024/01/30 08:20:59;;;;;;;9.97;8.90;;;;;;;4.46;100.00;152507.53;5073241;28;20462;-79
2024/01/30 08:23:25;;;;;;;9.57;8.37;;;;;;;4.52;100.00;152524.28;5072119;28;21080;-80
2024/01/30 08:25:52;;;;;;;10.17;8.07;;;;;;;4.59;100.00;152542.31;5069209;28;21059;-80
2024/01/30 08:28:19;;;;;;;10.37;9.33;;;;;;;4.68;100.00;152564.22;5060699;28;21556;-80
2024/01/30 08:30:46;;;;;;;9.93;7.90;;;;;;;4.77;100.00;152588.69;5057285;28;20563;-80
2024/01/30 08:33:13;;;;;;;9.17;8.20;;;;;;;4.83;100.00;152604.16;5056367;28;21022;-80
2024/01/30 08:35:39;;;;;;;12.00;9.00;;;;;;;4.91;100.00;152624.78;5060147;28;20490;-80
2024/01/30 08:38:06;;;;;;;9.70;8.27;;;;;;;5.03;100.00;152653.16;5059394;28;20457;-80
2024/01/30 08:40:32;;;;;;;10.70;9.40;;;;;;;5.16;98.95;152686.66;5074080;28;20867;-80
2024/01/30 08:42:59;;;;;;;10.80;8.87;;;;;;;5.25;98.42;152709.84;5057346;28;20551;-80
2024/01/30 08:45:26;;;;;;;9.70;7.80;;;;;;;5.32;98.84;152727.91;5074301;28;20819;-80
2024/01/30 08:47:53;;;;;;;8.60;7.27;;;;;;;5.39;98.51;152745.94;5057396;28;20446;-80
2024/01/30 08:50:19;;;;;;;9.77;8.20;;;;;;;5.45;98.17;152761.44;5065344;28;20478;-80
2024/01/30 08:52:46;;;;;;;9.23;7.97;;;;;;;5.50;97.78;152774.31;5072862;28;20462;-78
2024/01/30 08:55:13;;;;;;;9.57;7.30;;;;;;;5.59;96.75;152797.50;5054654;28;20493;-80
2024/01/30 08:57:39;;;;;;;9.80;8.50;;;;;;;5.68;95.36;152819.44;5057728;28;20450;-78
2024/01/30 09:00:09;;;;;;;8.50;7.00;;;;;;;5.75;94.32;152838.78;5041315;28;20462;-80
2024/01/30 09:02:36;;;;;;;9.33;7.10;;;;;;;5.82;93.83;152856.88;5072208;28;20466;-80
2024/01/30 09:05:03;;;;;;;8.10;7.30;;;;;;;5.88;92.54;152872.34;5074415;28;20463;-80
2024/01/30 09:07:30;;;;;;;9.87;7.80;;;;;;;5.98;91.89;152898.16;5071455;28;21014;-78
2024/01/30 09:09:57;;;;;;;8.47;6.60;;;;;;;6.04;90.72;152912.34;5057423;28;20873;-80
2024/01/30 09:12:24;;;;;;;8.87;6.87;;;;;;;6.10;90.29;152927.84;5058661;28;20493;-80
2024/01/30 09:14:50;;;;;;;8.40;7.60;;;;;;;6.17;89.83;152945.88;5058196;28;20446;-80
2024/01/30 09:17:17;;;;;;;9.90;7.90;;;;;;;6.25;90.42;152965.28;5036034;28;20446;-80
2024/01/30 09:19:46;;;;;;;9.50;8.00;;;;;;;6.28;90.42;152974.28;5056220;28;20684;-80
2024/01/30 09:22:12;;;;;;;8.20;7.30;;;;;;;6.30;89.72;152978.16;5060479;28;20454;-80
2024/01/30 09:24:39;;;;;;;8.17;6.97;;;;;;;6.35;89.28;152992.38;5057571;28;20454;-78
2024/01/30 09:27:05;;;;;;;8.77;7.50;;;;;;;6.36;90.22;152994.91;5042550;28;21037;-80
2024/01/30 09:29:34;;;;;;;8.30;7.13;;;;;;;6.36;89.67;152994.91;5059694;28;20472;-80
2024/01/30 09:32:00;;;;;;;9.43;7.30;;;;;;;6.37;89.80;152996.22;5038476;28;20546;-78
2024/01/30 09:34:27;;;;;;;9.20;8.20;;;;;;;6.39;88.93;153001.38;5045676;28;20458;-78
2024/01/30 09:36:54;;;;;;;7.83;6.87;;;;;;;6.46;87.94;153019.47;5044885;28;20987;-78
2024/01/30 09:39:21;;;;;;;7.80;7.00;;;;;;;6.52;87.02;153034.91;5042416;28;20944;-78
2024/01/30 09:41:50;;;;;;;7.33;6.30;;;;;;;6.59;86.04;153053.00;5044845;28;20948;-78
2024/01/30 09:44:17;;;;;;;7.07;6.20;;;;;;;6.67;85.64;153073.66;5058762;28;20770;-78
2024/01/30 09:46:44;;;;;;;6.63;5.97;;;;;;;6.75;85.59;153095.56;5059301;28;20458;-78
2024/01/30 09:49:10;;;;;;;6.97;6.27;;;;;;;6.84;85.86;153116.22;5038124;28;20569;-78
2024/01/30 09:51:37;;;;;;;10.40;5.87;;;;;;;6.91;85.19;153134.34;5050728;28;20557;-93
2024/01/30 09:54:05;;;;;;;7.87;5.87;;;;;;;6.96;85.07;153147.25;5052019;28;20450;-93
2024/01/30 09:56:32;;;;;;;7.63;6.43;;;;;;;7.05;84.33;153170.44;5051994;28;20954;-94
2024/01/30 09:58:58;;;;;;;6.73;5.70;;;;;;;7.12;83.89;153189.81;5051950;28;20435;-93
2024/01/30 10:01:26;;;;;;;9.73;5.93;;;;;;;7.21;83.76;153211.78;5051926;28;20454;-93
2024/01/30 10:03:54;;;;;;;7.70;6.80;;;;;;;7.25;83.17;153223.38;5035240;28;20439;-93
2024/01/30 10:06:22;;;;;;;8.53;6.20;;;;;;;7.33;82.74;153244.03;5051935;28;20446;-96
2024/01/30 10:08:49;;;;;;;7.87;6.27;;;;;;;7.41;82.18;153263.44;5052781;28;20439;-95
2024/01/30 10:11:17;;;;;;;9.80;6.47;;;;;;;7.48;82.37;153280.22;5068406;28;20470;-94
2024/01/30 10:13:43;;;;;;;9.13;6.13;;;;;;;7.56;82.45;153302.19;5051645;28;20454;-95
2024/01/30 10:16:10;;;;;;;7.00;6.30;;;;;;;7.63;82.44;153320.25;5051792;28;20793;-95
2024/01/30 10:18:37;;;;;;;10.90;6.77;;;;;;;7.67;83.38;153329.31;5051896;28;20435;-95
2024/01/30 10:21:03;;;;;;;9.30;6.53;;;;;;;7.69;82.83;153334.47;5051500;28;20537;-95
2024/01/30 10:23:30;;;;;;;6.50;5.80;;;;;;;7.75;82.48;153351.28;5051291;28;20446;-95
2024/01/30 10:25:56;;;;;;;7.13;6.43;;;;;;;7.83;81.68;153371.94;5051148;28;20446;-95
2024/01/30 10:28:29;;;;;;;8.17;6.00;;;;;;;7.92;81.07;153393.88;5051413;28;20501;-95
2024/01/30 10:31:00;;;;;;;7.63;6.23;;;;;;;7.97;81.43;153408.09;5050780;28;20486;-96
2024/01/30 10:33:27;;;;;;;7.13;6.13;;;;;;;8.02;81.17;153419.75;5050175;28;20435;-94
2024/01/30 10:35:56;;;;;;;8.57;6.37;;;;;;;8.05;81.53;153427.47;5051251;28;20481;-93
2024/01/30 10:38:24;;;;;;;6.43;5.83;;;;;;;8.06;81.30;153430.06;5050683;28;20459;-95
2024/01/30 10:40:52;;;;;;;8.10;6.23;;;;;;;8.13;80.52;153448.13;5026863;28;20462;-95
2024/01/30 10:43:23;;;;;;;9.07;5.90;;;;;;;8.15;81.41;153452.03;5034396;28;20431;-95
2024/01/30 10:45:54;;;;;;;8.60;5.23;;;;;;;8.20;80.28;153464.97;5034332;28;20447;-95
2024/01/30 10:48:27;;;;;;;6.80;5.13;;;;;;;8.27;79.80;153484.41;5034414;28;20439;-94
2024/01/30 10:50:54;;;;;;;7.50;5.20;;;;;;;8.35;79.02;153505.06;5034275;28;20473;-95
2024/01/30 10:53:22;;;;;;;6.03;5.43;;;;;;;8.40;78.79;153518.00;5031126;28;20566;-95
2024/01/30 10:55:49;;;;;;;7.07;5.37;;;;;;;8.43;80.74;153525.75;5047231;28;20444;-95
2024/01/30 10:58:16;;;;;;;5.33;4.83;;;;;;;8.48;79.48;153538.69;5014235;28;20432;-95
2024/01/30 11:00:43;;;;;;;8.83;5.20;;;;;;;8.53;80.78;153551.59;5047329;28;20451;-95
2024/01/30 11:03:11;;;;;;;7.80;5.07;;;;;;;8.53;80.90;153550.28;5031175;28;20450;-95
2024/01/30 11:05:41;;;;;;;5.93;4.53;;;;;;;8.57;80.75;153561.97;5047357;28;20448;-95
2024/01/30 11:08:12;;;;;;;5.43;4.30;;;;;;;8.60;81.27;153567.13;5030738;28;20482;-96
2024/01/30 11:10:45;;;;;;;5.60;4.53;;;;;;;8.63;79.36;153574.88;5046897;28;20483;-96
2024/01/30 11:13:14;;;;;;;6.90;5.07;;;;;;;8.69;79.59;153591.66;5030394;28;20444;-95
2024/01/30 11:15:41;;;;;;;6.03;4.80;;;;;;;8.76;79.54;153608.50;5030183;28;20555;-96
2024/01/30 11:18:08;;;;;;;8.57;4.80;;;;;;;8.79;80.56;153616.25;5047153;28;20532;-95
2024/01/30 11:20:36;;;;;;;6.13;5.37;;;;;;;8.90;79.67;153644.66;5030636;28;20655;-95
2024/01/30 11:23:06;;;;;;;7.47;5.83;;;;;;;8.90;80.14;153645.97;5046893;28;20436;-96
2024/01/30 11:25:33;;;;;;;5.77;5.20;;;;;;;8.87;79.46;153638.22;5046801;28;20539;-95